createdAt,value
2022-07-26T00:03:30.904Z,0.85
2022-07-26T00:07:15.017Z,0.90
2022-07-26T00:10:57.449Z,0.80
2022-07-26T00:14:40.107Z,0.90
2022-07-26T00:18:23.622Z,0.90
2022-07-26T00:22:23.721Z,0.98
2022-07-26T00:26:07.636Z,1.20
2022-07-26T00:29:50.398Z,0.90
2022-07-26T00:33:33.263Z,1.10
2022-07-26T00:37:20.118Z,1.00
2022-07-26T00:41:03.753Z,1.02
2022-07-26T00:44:47.780Z,1.17
2022-07-26T00:48:30.487Z,0.95
2022-07-26T00:52:13.961Z,1.30
2022-07-26T00:55:56.752Z,1.05
2022-07-26T00:59:39.622Z,1.05
2022-07-26T01:03:23.643Z,1.08
2022-07-26T01:07:15.481Z,1.17
2022-07-26T01:10:58.607Z,1.33
2022-07-26T01:14:44.250Z,1.25
2022-07-26T01:18:28.379Z,1.50
2022-07-26T01:22:14.622Z,1.10
2022-07-26T01:25:57.296Z,1.10
2022-07-26T01:29:40.003Z,1.42
2022-07-26T01:33:22.497Z,1.23
2022-07-26T01:37:06.183Z,1.00
2022-07-26T01:40:50.026Z,1.25
2022-07-26T01:44:32.396Z,1.55
2022-07-26T01:48:15.233Z,1.42
2022-07-26T01:51:58.028Z,1.20
2022-07-26T01:55:40.753Z,1.10
2022-07-26T01:59:24.705Z,1.60
2022-07-26T02:03:07.334Z,1.48
2022-07-26T02:06:49.793Z,1.38
2022-07-26T02:10:46.289Z,1.40
2022-07-26T02:14:31.447Z,1.10
2022-07-26T02:18:14.426Z,1.42
2022-07-26T02:21:57.330Z,1.52
2022-07-26T02:25:40.087Z,1.33
2022-07-26T02:29:22.807Z,1.30
2022-07-26T02:33:07.131Z,1.52
2022-07-26T02:36:49.901Z,1.38
2022-07-26T02:40:32.523Z,1.40
2022-07-26T02:47:57.654Z,1.55
2022-07-26T02:55:25.575Z,1.45
2022-07-26T02:59:08.709Z,1.30
2022-07-26T03:02:51.867Z,1.77
2022-07-26T03:06:34.460Z,1.40
2022-07-26T03:10:18.657Z,1.65
2022-07-26T03:14:01.186Z,1.20
2022-07-26T03:17:44.929Z,1.83
2022-07-26T03:21:27.694Z,1.90
2022-07-26T03:25:11.040Z,1.55
2022-07-26T03:28:55.858Z,1.60
2022-07-26T03:32:38.717Z,1.52
2022-07-26T03:36:21.600Z,1.77
2022-07-26T03:40:04.485Z,1.60
2022-07-26T03:43:46.806Z,2.17
2022-07-26T03:47:30.867Z,1.52
2022-07-26T03:51:13.252Z,1.63
2022-07-26T03:54:55.916Z,1.88
2022-07-26T03:58:38.474Z,1.90
2022-07-26T04:02:21.219Z,1.95
2022-07-26T04:06:06.051Z,2.50
2022-07-26T04:09:48.893Z,2.65
2022-07-26T04:13:31.797Z,3.33
2022-07-26T04:17:14.768Z,2.80
2022-07-26T04:20:57.464Z,2.50
2022-07-26T04:24:41.561Z,2.60
2022-07-26T04:28:26.703Z,2.20
2022-07-26T04:32:09.348Z,2.58
2022-07-26T04:35:52.094Z,2.28
2022-07-26T04:39:34.404Z,2.60
2022-07-26T04:43:18.637Z,2.20
2022-07-26T04:47:01.162Z,2.40
2022-07-26T04:50:43.986Z,2.05
2022-07-26T04:54:26.822Z,2.38
2022-07-26T05:01:53.532Z,1.60
2022-07-26T05:05:36.395Z,1.98
2022-07-26T05:09:19.070Z,2.15
2022-07-26T05:13:03.898Z,1.90
2022-07-26T05:16:47.075Z,1.80
2022-07-26T05:20:31.441Z,1.95
2022-07-26T05:24:14.089Z,1.60
2022-07-26T05:27:56.657Z,1.95
2022-07-26T05:31:39.264Z,1.60
2022-07-26T05:35:22.087Z,1.70
2022-07-26T05:39:06.082Z,1.33
2022-07-26T05:42:48.500Z,2.08
2022-07-26T05:46:31.540Z,1.85
2022-07-26T05:53:56.928Z,1.40
2022-07-26T05:57:41.551Z,1.20
2022-07-26T06:01:24.508Z,1.60
2022-07-26T06:05:07.727Z,1.52
2022-07-26T06:08:50.323Z,1.20
2022-07-26T06:12:33.030Z,1.05
2022-07-26T06:16:17.711Z,1.38
2022-07-26T06:20:00.705Z,0.90
2022-07-26T06:23:43.044Z,1.13
2022-07-26T06:27:25.858Z,1.50
2022-07-26T06:31:08.863Z,1.10
2022-07-26T06:34:52.658Z,1.20
2022-07-26T06:38:35.168Z,1.10
2022-07-26T06:42:18.037Z,0.80
2022-07-26T06:46:00.942Z,1.38
2022-07-26T06:49:44.765Z,0.98
2022-07-26T06:53:28.563Z,0.90
2022-07-26T06:57:11.033Z,0.98
2022-07-26T07:00:53.754Z,0.77
2022-07-26T07:04:37.018Z,0.90
2022-07-26T07:08:23.383Z,0.90
2022-07-26T07:12:09.748Z,1.08
2022-07-26T07:15:53.719Z,0.80
2022-07-26T07:19:38.033Z,0.85
2022-07-26T07:23:22.314Z,0.95
2022-07-26T07:27:05.263Z,0.63
2022-07-26T07:30:50.923Z,1.13
2022-07-26T07:34:33.733Z,1.35
2022-07-26T07:38:16.474Z,0.85
2022-07-26T07:42:00.338Z,0.85
2022-07-26T07:45:43.167Z,0.80
2022-07-26T07:49:32.702Z,0.95
2022-07-26T07:53:15.161Z,0.70
2022-07-26T07:56:57.892Z,0.90
2022-07-26T08:00:40.627Z,1.00
2022-07-26T08:08:08.449Z,0.63
2022-07-26T08:11:51.369Z,1.13
2022-07-26T08:15:34.249Z,0.77
2022-07-26T08:19:22.609Z,0.80
2022-07-26T08:23:06.798Z,1.00
2022-07-26T08:26:51.321Z,0.70
2022-07-26T08:30:34.727Z,0.90
2022-07-26T08:34:18.353Z,0.55
2022-07-26T08:38:00.922Z,0.88
2022-07-26T08:41:45.049Z,1.02
2022-07-26T08:45:29.547Z,0.82
2022-07-26T08:49:14.471Z,0.98
2022-07-26T08:53:03.965Z,0.70
2022-07-26T08:56:53.175Z,1.05
2022-07-26T09:00:35.991Z,0.70
2022-07-26T09:04:31.490Z,0.90
2022-07-26T09:08:24.813Z,0.63
2022-07-26T09:12:20.864Z,0.63
2022-07-26T09:16:10.587Z,0.70
2022-07-26T09:20:07.718Z,0.82
2022-07-26T09:23:50.484Z,0.73
2022-07-26T09:27:37.198Z,0.90
2022-07-26T09:31:24.235Z,1.08
2022-07-26T09:35:45.411Z,0.70
2022-07-26T09:39:22.795Z,1.05
2022-07-26T09:43:19.788Z,0.90
2022-07-26T09:47:06.968Z,1.40
2022-07-26T09:50:50.036Z,0.90
2022-07-26T09:54:35.194Z,0.70
2022-07-26T09:58:19.506Z,0.80
2022-07-26T10:02:02.645Z,0.90
2022-07-26T10:05:45.460Z,0.80
2022-07-26T10:09:35.225Z,0.73
2022-07-26T10:13:19.549Z,0.70
2022-07-26T10:17:03.005Z,0.80
2022-07-26T10:20:51.696Z,0.60
2022-07-26T10:24:34.611Z,0.80
2022-07-26T10:28:30.525Z,1.00
2022-07-26T10:32:21.144Z,0.95
2022-07-26T10:36:23.077Z,0.95
2022-07-26T10:40:25.258Z,0.88
2022-07-26T10:44:24.378Z,0.80
2022-07-26T10:48:15.414Z,0.88
2022-07-26T10:52:08.010Z,0.70
2022-07-26T10:55:52.331Z,0.90
2022-07-26T10:59:55.443Z,0.70
2022-07-26T11:03:39.845Z,0.80
2022-07-26T11:07:22.592Z,0.70
2022-07-26T11:11:07.531Z,0.70
2022-07-26T11:14:53.185Z,0.70
2022-07-26T11:18:36.865Z,1.13
2022-07-26T11:22:19.878Z,0.90
2022-07-26T11:26:11.412Z,0.95
2022-07-26T11:29:55.629Z,0.90
2022-07-26T11:33:40.979Z,0.82
2022-07-26T11:37:23.513Z,0.60
2022-07-26T11:41:06.706Z,0.50
2022-07-26T11:44:50.893Z,0.85
2022-07-26T11:48:35.122Z,0.73
2022-07-26T11:52:25.238Z,0.85
2022-07-26T11:56:16.986Z,0.60
2022-07-26T12:00:01.013Z,0.68
2022-07-26T12:03:46.687Z,0.80
2022-07-26T12:07:29.374Z,0.70
2022-07-26T12:14:59.650Z,0.73
2022-07-26T12:18:53.556Z,0.65
2022-07-26T12:22:36.481Z,0.60
2022-07-26T12:30:16.851Z,0.52
2022-07-26T12:34:01.128Z,0.80
2022-07-26T12:37:51.339Z,1.00
2022-07-26T12:41:36.605Z,0.70
2022-07-26T12:45:20.640Z,0.60
2022-07-26T12:49:05.469Z,0.80
2022-07-26T12:52:49.036Z,0.63
2022-07-26T12:56:31.620Z,0.73
2022-07-26T13:00:16.133Z,0.68
2022-07-26T13:03:59.067Z,0.40
2022-07-26T13:07:43.400Z,0.60
2022-07-26T13:11:26.474Z,0.80
2022-07-26T13:15:09.942Z,0.55
2022-07-26T13:18:52.519Z,1.10
2022-07-26T13:22:35.229Z,0.70
2022-07-26T13:26:19.835Z,0.63
2022-07-26T13:30:04.741Z,0.55
2022-07-26T13:33:47.677Z,0.80
2022-07-26T13:37:30.436Z,0.63
2022-07-26T13:41:13.023Z,0.50
2022-07-26T13:44:57.201Z,0.50
2022-07-26T13:48:58.268Z,0.70
2022-07-26T13:52:43.497Z,0.90
2022-07-26T14:00:11.484Z,0.77
2022-07-26T14:03:54.104Z,0.63
2022-07-26T14:07:36.980Z,0.77
2022-07-26T14:15:02.032Z,0.50
2022-07-26T14:18:46.358Z,0.60
2022-07-26T14:22:28.901Z,0.70
2022-07-26T14:26:11.553Z,0.50
2022-07-26T14:29:54.481Z,0.70
2022-07-26T14:33:37.278Z,0.73
2022-07-26T14:37:42.633Z,0.60
2022-07-26T14:41:24.241Z,0.77
2022-07-26T14:45:09.398Z,0.60
2022-07-26T14:48:54.752Z,0.50
2022-07-26T14:52:40.484Z,0.60
2022-07-26T14:56:23.210Z,0.77
2022-07-26T15:00:07.611Z,0.60
2022-07-26T15:03:50.211Z,0.57
2022-07-26T15:07:32.858Z,0.95
2022-07-26T15:14:59.403Z,0.80
2022-07-26T15:18:42.199Z,0.77
2022-07-26T15:26:07.590Z,0.90
2022-07-26T15:33:35.299Z,0.70
2022-07-26T15:37:18.836Z,2.08
2022-07-26T15:41:01.736Z,0.70
2022-07-26T15:44:45.763Z,0.70
2022-07-26T15:48:30.795Z,0.70
2022-07-26T15:52:13.788Z,0.93
2022-07-26T15:55:56.494Z,0.95
2022-07-26T16:03:21.270Z,0.98
2022-07-26T16:07:05.536Z,0.77
2022-07-26T16:10:48.103Z,0.68
2022-07-26T16:14:31.943Z,1.00
2022-07-26T16:18:15.311Z,0.68
2022-07-26T16:21:58.303Z,0.60
2022-07-26T16:25:42.122Z,0.60
2022-07-26T16:29:24.745Z,0.90
2022-07-26T16:33:07.535Z,0.63
2022-07-26T16:36:50.370Z,0.77
2022-07-26T16:40:33.093Z,0.57
2022-07-26T16:44:17.193Z,0.88
2022-07-26T16:48:00.097Z,0.45
2022-07-26T16:51:42.890Z,1.20
2022-07-26T16:55:25.613Z,0.80
2022-07-26T16:59:10.520Z,0.60
2022-07-26T17:02:55.427Z,0.50
2022-07-26T17:06:40.331Z,0.73
2022-07-26T17:10:23.124Z,0.90
2022-07-26T17:14:06.461Z,0.90
2022-07-26T17:17:49.185Z,0.90
2022-07-26T17:21:33.503Z,0.57
2022-07-26T17:25:16.079Z,0.73
2022-07-26T17:28:59.011Z,0.63
2022-07-26T17:36:25.482Z,0.68
2022-07-26T17:40:11.373Z,0.60
2022-07-26T17:43:54.313Z,1.08
2022-07-26T17:47:36.826Z,0.60
2022-07-26T17:51:19.995Z,0.70
2022-07-26T17:55:02.636Z,0.57
2022-07-26T17:58:46.883Z,0.80
2022-07-26T18:02:29.401Z,0.80
2022-07-26T18:06:12.326Z,1.00
2022-07-26T18:09:55.017Z,0.60
2022-07-26T18:13:38.441Z,0.65
2022-07-26T18:17:22.329Z,0.90
2022-07-26T18:21:05.129Z,0.82
2022-07-26T18:28:29.618Z,0.70
2022-07-26T18:32:12.627Z,0.80
2022-07-26T18:35:58.934Z,1.00
2022-07-26T18:39:41.782Z,0.68
2022-07-26T18:43:24.724Z,0.77
2022-07-26T18:50:52.296Z,0.82
2022-07-26T18:54:37.537Z,0.82
2022-07-26T18:58:20.097Z,0.70
2022-07-26T19:02:08.749Z,1.00
2022-07-26T19:05:51.505Z,1.05
2022-07-26T19:09:34.294Z,0.57
2022-07-26T19:13:18.158Z,2.00
2022-07-26T19:17:00.917Z,1.17
2022-07-26T19:20:44.243Z,0.90
2022-07-26T19:24:26.872Z,0.90
2022-07-26T19:28:09.670Z,0.90
2022-07-26T19:31:53.789Z,0.93
2022-07-26T19:35:36.244Z,1.17
2022-07-26T19:43:01.324Z,1.30
2022-07-26T19:46:44.461Z,1.08
2022-07-26T19:50:28.357Z,1.42
2022-07-26T19:54:11.085Z,1.02
2022-07-26T19:57:53.507Z,0.82
2022-07-26T20:01:36.213Z,1.85
2022-07-26T20:05:18.809Z,1.00
2022-07-26T20:09:02.877Z,1.08
2022-07-26T20:12:45.573Z,1.05
2022-07-26T20:16:28.677Z,1.10
2022-07-26T20:20:13.133Z,0.80
2022-07-26T20:23:55.668Z,1.10
2022-07-26T20:27:39.779Z,1.00
2022-07-26T20:31:22.347Z,1.00
2022-07-26T20:35:05.566Z,1.52
2022-07-26T20:38:51.460Z,1.08
2022-07-26T20:42:34.308Z,1.20
2022-07-26T20:46:19.721Z,1.50
2022-07-26T20:50:03.817Z,1.02
2022-07-26T20:53:46.791Z,1.30
2022-07-26T20:57:29.429Z,1.10
2022-07-26T21:01:13.024Z,1.20
2022-07-26T21:04:58.669Z,1.30
2022-07-26T21:08:41.488Z,1.75
2022-07-26T21:12:24.242Z,1.52
2022-07-26T21:16:09.964Z,1.92
2022-07-26T21:19:52.812Z,1.23
2022-07-26T21:23:36.717Z,1.33
2022-07-26T21:27:19.582Z,1.20
2022-07-26T21:34:44.858Z,1.27
2022-07-26T21:38:29.748Z,1.20
2022-07-26T21:42:13.681Z,1.30
2022-07-26T21:45:56.627Z,1.30
2022-07-26T21:49:39.210Z,1.45
2022-07-26T21:53:21.781Z,1.38
2022-07-26T21:57:04.757Z,1.38
2022-07-26T22:00:48.764Z,1.40
2022-07-26T22:04:31.521Z,1.15
2022-07-26T22:08:15.294Z,1.30
2022-07-26T22:11:58.207Z,1.38
2022-07-26T22:15:41.114Z,1.10
2022-07-26T22:19:24.956Z,1.58
2022-07-26T22:23:09.282Z,1.20
2022-07-26T22:26:52.049Z,1.52
2022-07-26T22:30:35.090Z,1.30
2022-07-26T22:34:18.129Z,1.33
2022-07-26T22:53:01.884Z,1.30
2022-07-26T22:56:44.438Z,1.33
2022-07-26T23:00:27.349Z,1.20
2022-07-26T23:04:09.873Z,1.38
2022-07-26T23:07:52.694Z,1.30
2022-07-26T23:11:36.740Z,1.55
2022-07-26T23:15:19.144Z,1.20
2022-07-26T23:19:02.021Z,1.60
2022-07-26T23:22:44.501Z,1.67
2022-07-26T23:26:27.117Z,1.50
2022-07-26T23:30:12.300Z,1.30
2022-07-26T23:33:54.907Z,1.50
2022-07-26T23:37:37.456Z,1.25
2022-07-26T23:41:20.312Z,1.90
2022-07-26T23:45:03.133Z,1.40
2022-07-26T23:48:47.549Z,1.70
2022-07-26T23:52:30.114Z,1.85
2022-07-26T23:56:12.972Z,1.40
2022-07-26T23:59:55.639Z,1.98
